sensor_id;sensor_type;location;lat;lon;timestamp;pressure;altitude;pressure_sealevel;temperature;humidity
13422;BME280;6782;55.904;13.396;2023-02-18T00:01:32;98601.34;;;6.25;100.00
13422;BME280;6782;55.904;13.396;2023-02-18T00:03:59;98624.47;;;6.36;100.00
13422;BME280;6782;55.904;13.396;2023-02-18T00:06:30;98607.91;;;6.35;100.00
13422;BME280;6782;55.904;13.396;2023-02-18T00:08:58;98661.50;;;6.26;100.00
13422;BME280;6782;55.904;13.396;2023-02-18T00:11:28;98655.13;;;6.32;100.00
13422;BME280;6782;55.904;13.396;2023-02-18T00:13:58;98578.56;;;6.27;100.00
13422;BME280;6782;55.904;13.396;2023-02-18T00:16:27;98638.66;;;6.30;100.00
13422;BME280;6782;55.904;13.396;2023-02-18T00:18:55;98621.84;;;6.14;100.00
13422;BME280;6782;55.904;13.396;2023-02-18T00:21:23;98641.97;;;6.12;100.00
13422;BME280;6782;55.904;13.396;2023-02-18T00:23:52;98697.38;;;6.23;100.00
13422;BME280;6782;55.904;13.396;2023-02-18T00:26:20;98687.03;;;6.20;100.00
13422;BME280;6782;55.904;13.396;2023-02-18T00:28:47;98685.78;;;6.07;100.00
13422;BME280;6782;55.904;13.396;2023-02-18T00:31:17;98688.41;;;6.07;100.00
13422;BME280;6782;55.904;13.396;2023-02-18T00:33:46;98752.13;;;6.06;100.00
13422;BME280;6782;55.904;13.396;2023-02-18T00:36:16;98754.16;;;5.98;100.00
13422;BME280;6782;55.904;13.396;2023-02-18T00:38:45;98813.19;;;6.05;100.00
13422;BME280;6782;55.904;13.396;2023-02-18T00:41:15;98852.63;;;6.00;100.00
13422;BME280;6782;55.904;13.396;2023-02-18T00:43:42;98890.19;;;5.98;100.00
13422;BME280;6782;55.904;13.396;2023-02-18T00:46:10;98874.69;;;5.92;100.00
13422;BME280;6782;55.904;13.396;2023-02-18T00:48:38;98953.00;;;5.98;100.00
13422;BME280;6782;55.904;13.396;2023-02-18T00:51:06;98900.06;;;5.90;100.00
13422;BME280;6782;55.904;13.396;2023-02-18T00:53:35;98913.16;;;5.90;100.00
13422;BME280;6782;55.904;13.396;2023-02-18T00:56:03;98959.28;;;5.92;100.00
13422;BME280;6782;55.904;13.396;2023-02-18T00:58:33;98947.16;;;5.90;100.00
13422;BME280;6782;55.904;13.396;2023-02-18T01:01:02;98970.59;;;5.93;100.00
13422;BME280;6782;55.904;13.396;2023-02-18T01:03:30;98985.63;;;5.86;100.00
13422;BME280;6782;55.904;13.396;2023-02-18T01:05:59;98948.91;;;5.89;100.00
13422;BME280;6782;55.904;13.396;2023-02-18T01:08:27;98971.66;;;5.87;100.00
13422;BME280;6782;55.904;13.396;2023-02-18T01:10:56;98958.69;;;5.83;100.00
13422;BME280;6782;55.904;13.396;2023-02-18T01:13:24;98978.78;;;5.81;100.00
13422;BME280;6782;55.904;13.396;2023-02-18T01:15:53;98976.31;;;5.78;100.00
13422;BME280;6782;55.904;13.396;2023-02-18T01:18:21;98991.88;;;5.81;100.00
13422;BME280;6782;55.904;13.396;2023-02-18T01:20:49;98976.19;;;5.81;100.00
13422;BME280;6782;55.904;13.396;2023-02-18T01:23:16;98970.25;;;5.76;100.00
13422;BME280;6782;55.904;13.396;2023-02-18T01:25:44;99011.09;;;5.80;100.00
13422;BME280;6782;55.904;13.396;2023-02-18T01:28:12;98981.53;;;5.78;100.00
13422;BME280;6782;55.904;13.396;2023-02-18T01:30:40;99006.81;;;5.77;100.00
13422;BME280;6782;55.904;13.396;2023-02-18T01:33:09;98986.75;;;5.78;100.00
13422;BME280;6782;55.904;13.396;2023-02-18T01:35:37;99011.28;;;5.74;100.00
13422;BME280;6782;55.904;13.396;2023-02-18T01:38:06;99039.88;;;5.80;100.00
13422;BME280;6782;55.904;13.396;2023-02-18T01:40:34;99035.44;;;5.82;100.00
13422;BME280;6782;55.904;13.396;2023-02-18T01:43:02;99021.59;;;5.78;100.00
13422;BME280;6782;55.904;13.396;2023-02-18T01:45:48;99051.44;;;5.73;100.00
13422;BME280;6782;55.904;13.396;2023-02-18T01:48:21;99089.81;;;5.70;100.00
13422;BME280;6782;55.904;13.396;2023-02-18T01:50:53;99089.91;;;5.67;100.00
13422;BME280;6782;55.904;13.396;2023-02-18T01:53:30;99093.31;;;5.71;100.00
13422;BME280;6782;55.904;13.396;2023-02-18T01:56:02;99088.22;;;5.66;100.00
13422;BME280;6782;55.904;13.396;2023-02-18T01:58:31;99065.66;;;5.62;100.00
13422;BME280;6782;55.904;13.396;2023-02-18T02:00:59;99111.78;;;5.65;100.00
13422;BME280;6782;55.904;13.396;2023-02-18T02:03:29;99138.78;;;5.65;100.00
13422;BME280;6782;55.904;13.396;2023-02-18T02:05:56;99051.88;;;5.57;100.00
13422;BME280;6782;55.904;13.396;2023-02-18T02:08:24;99124.84;;;5.66;100.00
13422;BME280;6782;55.904;13.396;2023-02-18T02:11:03;99109.38;;;5.59;100.00
13422;BME280;6782;55.904;13.396;2023-02-18T02:13:45;99151.16;;;5.60;100.00
13422;BME280;6782;55.904;13.396;2023-02-18T02:16:21;99162.56;;;5.58;100.00
13422;BME280;6782;55.904;13.396;2023-02-18T02:19:03;99167.63;;;5.62;100.00
13422;BME280;6782;55.904;13.396;2023-02-18T02:25:11;99190.41;;;5.59;100.00
13422;BME280;6782;55.904;13.396;2023-02-18T02:27:59;99222.75;;;5.55;100.00
13422;BME280;6782;55.904;13.396;2023-02-18T02:30:50;99234.16;;;5.54;100.00
13422;BME280;6782;55.904;13.396;2023-02-18T02:33:50;99244.75;;;5.48;100.00
13422;BME280;6782;55.904;13.396;2023-02-18T02:36:28;99277.06;;;5.45;100.00
13422;BME280;6782;55.904;13.396;2023-02-18T02:39:04;99294.28;;;5.52;100.00
13422;BME280;6782;55.904;13.396;2023-02-18T02:41:44;99309.97;;;5.52;100.00
13422;BME280;6782;55.904;13.396;2023-02-18T02:44:19;99316.31;;;5.44;100.00
13422;BME280;6782;55.904;13.396;2023-02-18T02:46:50;99356.22;;;5.52;100.00
13422;BME280;6782;55.904;13.396;2023-02-18T02:49:27;99360.56;;;5.51;100.00
13422;BME280;6782;55.904;13.396;2023-02-18T02:52:04;99352.94;;;5.44;100.00
13422;BME280;6782;55.904;13.396;2023-02-18T02:54:31;99369.47;;;5.44;100.00
13422;BME280;6782;55.904;13.396;2023-02-18T02:57:08;99376.34;;;5.48;100.00
13422;BME280;6782;55.904;13.396;2023-02-18T02:59:40;99389.53;;;5.42;100.00
13422;BME280;6782;55.904;13.396;2023-02-18T03:02:20;99397.31;;;5.45;100.00
13422;BME280;6782;55.904;13.396;2023-02-18T03:04:59;99401.59;;;5.49;100.00
13422;BME280;6782;55.904;13.396;2023-02-18T03:10:47;99405.03;;;5.51;100.00
13422;BME280;6782;55.904;13.396;2023-02-18T03:13:27;99408.63;;;5.46;100.00
13422;BME280;6782;55.904;13.396;2023-02-18T03:16:05;99378.13;;;5.46;100.00
13422;BME280;6782;55.904;13.396;2023-02-18T03:18:40;99341.81;;;5.34;100.00
13422;BME280;6782;55.904;13.396;2023-02-18T03:21:12;99405.28;;;5.39;100.00
13422;BME280;6782;55.904;13.396;2023-02-18T03:23:48;99406.22;;;5.37;100.00
13422;BME280;6782;55.904;13.396;2023-02-18T03:26:18;99378.50;;;5.31;100.00
13422;BME280;6782;55.904;13.396;2023-02-18T03:28:48;99395.13;;;5.27;100.00
13422;BME280;6782;55.904;13.396;2023-02-18T03:31:20;99410.06;;;5.22;100.00
13422;BME280;6782;55.904;13.396;2023-02-18T03:33:53;99406.41;;;5.31;100.00
13422;BME280;6782;55.904;13.396;2023-02-18T03:36:22;99406.41;;;5.29;100.00
13422;BME280;6782;55.904;13.396;2023-02-18T03:38:53;99399.63;;;5.22;100.00
13422;BME280;6782;55.904;13.396;2023-02-18T03:41:23;99404.84;;;5.22;100.00
13422;BME280;6782;55.904;13.396;2023-02-18T03:43:50;99416.97;;;5.26;100.00
13422;BME280;6782;55.904;13.396;2023-02-18T03:46:18;99408.44;;;5.18;100.00
13422;BME280;6782;55.904;13.396;2023-02-18T03:48:46;99443.41;;;5.13;100.00
13422;BME280;6782;55.904;13.396;2023-02-18T03:51:13;99431.22;;;5.12;100.00
13422;BME280;6782;55.904;13.396;2023-02-18T03:53:41;99464.13;;;5.20;100.00
13422;BME280;6782;55.904;13.396;2023-02-18T03:56:10;99443.22;;;5.20;100.00
13422;BME280;6782;55.904;13.396;2023-02-18T03:58:38;99451.06;;;5.20;100.00
13422;BME280;6782;55.904;13.396;2023-02-18T04:01:14;99439.00;;;5.15;100.00
13422;BME280;6782;55.904;13.396;2023-02-18T04:03:42;99424.31;;;5.09;100.00
13422;BME280;6782;55.904;13.396;2023-02-18T04:06:09;99436.44;;;5.13;100.00
13422;BME280;6782;55.904;13.396;2023-02-18T04:08:37;99472.91;;;5.18;100.00
13422;BME280;6782;55.904;13.396;2023-02-18T04:11:05;99483.13;;;5.28;100.00
13422;BME280;6782;55.904;13.396;2023-02-18T04:13:34;99448.22;;;5.29;100.00
13422;BME280;6782;55.904;13.396;2023-02-18T04:16:02;99405.78;;;5.20;100.00
13422;BME280;6782;55.904;13.396;2023-02-18T04:18:29;99392.03;;;5.12;100.00
13422;BME280;6782;55.904;13.396;2023-02-18T04:20:57;99451.06;;;5.20;100.00
13422;BME280;6782;55.904;13.396;2023-02-18T04:23:25;99424.13;;;5.18;100.00
13422;BME280;6782;55.904;13.396;2023-02-18T04:25:53;99412.81;;;5.18;100.00
13422;BME280;6782;55.904;13.396;2023-02-18T04:28:20;99420.47;;;5.25;100.00
13422;BME280;6782;55.904;13.396;2023-02-18T04:30:50;99382.44;;;5.12;100.00
13422;BME280;6782;55.904;13.396;2023-02-18T04:33:18;99396.38;;;5.11;100.00
13422;BME280;6782;55.904;13.396;2023-02-18T04:35:45;99391.97;;;5.15;100.00
13422;BME280;6782;55.904;13.396;2023-02-18T04:38:13;99383.41;;;5.08;100.00
13422;BME280;6782;55.904;13.396;2023-02-18T04:40:40;99387.72;;;5.09;100.00
13422;BME280;6782;55.904;13.396;2023-02-18T04:43:08;99385.28;;;5.03;100.00
13422;BME280;6782;55.904;13.396;2023-02-18T04:45:36;99381.88;;;4.99;100.00
13422;BME280;6782;55.904;13.396;2023-02-18T04:48:06;99374.13;;;4.95;100.00
13422;BME280;6782;55.904;13.396;2023-02-18T04:50:33;99422.72;;;5.02;100.00
13422;BME280;6782;55.904;13.396;2023-02-18T04:53:01;99388.78;;;5.02;100.00
13422;BME280;6782;55.904;13.396;2023-02-18T04:55:28;99407.28;;;4.93;100.00
13422;BME280;6782;55.904;13.396;2023-02-18T04:57:56;99407.13;;;4.99;100.00
13422;BME280;6782;55.904;13.396;2023-02-18T05:00:24;99414.25;;;4.91;100.00
13422;BME280;6782;55.904;13.396;2023-02-18T05:02:53;99451.69;;;4.93;100.00
13422;BME280;6782;55.904;13.396;2023-02-18T05:05:22;99459.44;;;4.96;100.00
13422;BME280;6782;55.904;13.396;2023-02-18T05:07:49;99457.91;;;4.86;100.00
13422;BME280;6782;55.904;13.396;2023-02-18T05:10:17;99481.47;;;4.83;100.00
13422;BME280;6782;55.904;13.396;2023-02-18T05:12:45;99517.88;;;4.92;100.00
13422;BME280;6782;55.904;13.396;2023-02-18T05:15:12;99526.41;;;4.98;100.00
13422;BME280;6782;55.904;13.396;2023-02-18T05:17:39;99492.75;;;4.85;100.00
13422;BME280;6782;55.904;13.396;2023-02-18T05:20:10;99532.81;;;4.84;100.00
13422;BME280;6782;55.904;13.396;2023-02-18T05:22:39;99503.28;;;4.82;100.00
13422;BME280;6782;55.904;13.396;2023-02-18T05:25:07;99541.44;;;4.89;100.00
13422;BME280;6782;55.904;13.396;2023-02-18T05:27:35;99538.09;;;4.81;100.00
13422;BME280;6782;55.904;13.396;2023-02-18T05:30:03;99555.50;;;4.82;100.00
13422;BME280;6782;55.904;13.396;2023-02-18T05:32:31;99557.22;;;4.83;100.00
13422;BME280;6782;55.904;13.396;2023-02-18T05:35:00;99564.88;;;4.92;100.00
13422;BME280;6782;55.904;13.396;2023-02-18T05:37:27;99589.28;;;4.91;100.00
13422;BME280;6782;55.904;13.396;2023-02-18T05:39:57;99591.06;;;4.89;100.00
13422;BME280;6782;55.904;13.396;2023-02-18T05:42:25;99588.53;;;4.83;100.00
13422;BME280;6782;55.904;13.396;2023-02-18T05:44:52;99590.22;;;4.87;100.00
13422;BME280;6782;55.904;13.396;2023-02-18T05:47:20;99606.78;;;4.86;100.00
13422;BME280;6782;55.904;13.396;2023-02-18T05:49:48;99601.50;;;4.89;100.00
13422;BME280;6782;55.904;13.396;2023-02-18T05:52:16;99598.84;;;4.92;100.00
13422;BME280;6782;55.904;13.396;2023-02-18T05:54:59;99604.16;;;4.86;100.00
13422;BME280;6782;55.904;13.396;2023-02-18T05:57:26;99601.59;;;4.83;100.00
13422;BME280;6782;55.904;13.396;2023-02-18T05:59:54;99593.91;;;4.77;100.00
13422;BME280;6782;55.904;13.396;2023-02-18T06:02:21;99583.41;;;4.80;100.00
13422;BME280;6782;55.904;13.396;2023-02-18T06:04:48;99583.28;;;4.86;100.00
13422;BME280;6782;55.904;13.396;2023-02-18T06:07:15;99574.72;;;4.78;100.00
13422;BME280;6782;55.904;13.396;2023-02-18T06:09:45;99579.84;;;4.84;100.00
13422;BME280;6782;55.904;13.396;2023-02-18T06:12:14;99559.00;;;4.81;100.00
13422;BME280;6782;55.904;13.396;2023-02-18T06:14:41;99578.97;;;4.83;100.00
13422;BME280;6782;55.904;13.396;2023-02-18T06:17:08;99559.81;;;4.83;100.00
13422;BME280;6782;55.904;13.396;2023-02-18T06:19:35;99571.03;;;4.88;100.00
13422;BME280;6782;55.904;13.396;2023-02-18T06:22:02;99562.28;;;4.92;100.00
13422;BME280;6782;55.904;13.396;2023-02-18T06:24:29;99547.75;;;4.77;100.00
13422;BME280;6782;55.904;13.396;2023-02-18T06:26:56;99543.38;;;4.78;100.00
13422;BME280;6782;55.904;13.396;2023-02-18T06:29:25;99554.69;;;4.80;100.00
13422;BME280;6782;55.904;13.396;2023-02-18T06:31:54;99559.56;;;4.96;100.00
13422;BME280;6782;55.904;13.396;2023-02-18T06:34:21;99539.63;;;4.91;100.00
13422;BME280;6782;55.904;13.396;2023-02-18T06:36:49;99525.94;;;4.80;100.00
13422;BME280;6782;55.904;13.396;2023-02-18T06:39:17;99523.03;;;4.95;100.00
13422;BME280;6782;55.904;13.396;2023-02-18T06:41:44;99506.75;;;4.82;100.00
13422;BME280;6782;55.904;13.396;2023-02-18T06:44:11;99522.13;;;4.96;100.00
13422;BME280;6782;55.904;13.396;2023-02-18T06:46:46;99505.06;;;4.80;100.00
13422;BME280;6782;55.904;13.396;2023-02-18T06:49:13;99510.13;;;4.86;100.00
13422;BME280;6782;55.904;13.396;2023-02-18T06:51:41;99492.81;;;4.82;100.00
13422;BME280;6782;55.904;13.396;2023-02-18T06:54:08;99472.81;;;4.81;100.00
13422;BME280;6782;55.904;13.396;2023-02-18T06:56:35;99486.78;;;4.80;100.00
13422;BME280;6782;55.904;13.396;2023-02-18T06:59:05;99489.38;;;4.80;100.00
13422;BME280;6782;55.904;13.396;2023-02-18T07:01:33;99486.84;;;4.75;100.00
13422;BME280;6782;55.904;13.396;2023-02-18T07:04:01;99498.03;;;4.82;100.00
13422;BME280;6782;55.904;13.396;2023-02-18T07:06:28;99520.38;;;4.98;100.00
13422;BME280;6782;55.904;13.396;2023-02-18T07:08:55;99506.59;;;4.90;100.00
13422;BME280;6782;55.904;13.396;2023-02-18T07:11:22;99498.66;;;4.94;100.00
13422;BME280;6782;55.904;13.396;2023-02-18T07:13:49;99499.53;;;4.95;100.00
13422;BME280;6782;55.904;13.396;2023-02-18T07:16:15;99502.91;;;5.00;100.00
13422;BME280;6782;55.904;13.396;2023-02-18T07:18:43;99501.03;;;5.05;100.00
13422;BME280;6782;55.904;13.396;2023-02-18T07:21:11;99489.06;;;4.95;100.00
13422;BME280;6782;55.904;13.396;2023-02-18T07:23:39;99497.63;;;5.01;100.00
13422;BME280;6782;55.904;13.396;2023-02-18T07:26:08;99518.31;;;5.12;100.00
13422;BME280;6782;55.904;13.396;2023-02-18T07:28:35;99486.13;;;5.10;100.00
13422;BME280;6782;55.904;13.396;2023-02-18T07:31:03;99512.22;;;5.12;100.00
13422;BME280;6782;55.904;13.396;2023-02-18T07:33:31;99499.13;;;5.13;100.00
13422;BME280;6782;55.904;13.396;2023-02-18T07:36:00;99527.56;;;5.28;100.00
13422;BME280;6782;55.904;13.396;2023-02-18T07:38:30;99511.88;;;5.27;100.00
13422;BME280;6782;55.904;13.396;2023-02-18T07:40:58;99509.97;;;5.35;100.00
13422;BME280;6782;55.904;13.396;2023-02-18T07:43:25;99487.47;;;5.28;100.00
13422;BME280;6782;55.904;13.396;2023-02-18T07:45:53;99487.38;;;5.32;100.00
13422;BME280;6782;55.904;13.396;2023-02-18T07:48:21;99479.53;;;5.32;100.00
13422;BME280;6782;55.904;13.396;2023-02-18T07:50:48;99508.94;;;5.42;100.00
13422;BME280;6782;55.904;13.396;2023-02-18T07:53:16;99491.56;;;5.39;100.00
13422;BME280;6782;55.904;13.396;2023-02-18T07:55:45;99499.34;;;5.42;100.00
13422;BME280;6782;55.904;13.396;2023-02-18T07:58:15;99497.53;;;5.46;100.00
13422;BME280;6782;55.904;13.396;2023-02-18T08:00:42;99505.31;;;5.47;100.00
13422;BME280;6782;55.904;13.396;2023-02-18T08:03:12;99498.22;;;5.52;100.00
13422;BME280;6782;55.904;13.396;2023-02-18T08:05:39;99517.44;;;5.51;100.00
13422;BME280;6782;55.904;13.396;2023-02-18T08:08:09;99508.63;;;5.55;100.00
13422;BME280;6782;55.904;13.396;2023-02-18T08:10:38;99519.09;;;5.55;100.00
13422;BME280;6782;55.904;13.396;2023-02-18T08:13:08;99513.78;;;5.58;100.00
13422;BME280;6782;55.904;13.396;2023-02-18T08:15:35;99518.09;;;5.61;100.00
13422;BME280;6782;55.904;13.396;2023-02-18T08:18:03;99515.38;;;5.65;100.00
13422;BME280;6782;55.904;13.396;2023-02-18T08:20:30;99519.66;;;5.68;100.00
13422;BME280;6782;55.904;13.396;2023-02-18T08:22:58;99525.75;;;5.68;100.00
13422;BME280;6782;55.904;13.396;2023-02-18T08:25:25;99535.94;;;5.81;100.00
13422;BME280;6782;55.904;13.396;2023-02-18T08:27:52;99532.41;;;5.85;100.00
13422;BME280;6782;55.904;13.396;2023-02-18T08:30:21;99560.19;;;5.89;100.00
13422;BME280;6782;55.904;13.396;2023-02-18T08:32:48;99517.50;;;5.87;100.00
13422;BME280;6782;55.904;13.396;2023-02-18T08:35:16;99547.59;;;6.06;100.00
13422;BME280;6782;55.904;13.396;2023-02-18T08:37:43;99542.44;;;6.03;100.00
13422;BME280;6782;55.904;13.396;2023-02-18T08:40:11;99512.72;;;6.04;100.00
13422;BME280;6782;55.904;13.396;2023-02-18T08:42:39;99509.09;;;6.11;100.00
13422;BME280;6782;55.904;13.396;2023-02-18T08:45:07;99516.75;;;6.18;100.00
13422;BME280;6782;55.904;13.396;2023-02-18T08:47:36;99474.00;;;6.18;100.00
13422;BME280;6782;55.904;13.396;2023-02-18T08:50:04;99473.00;;;6.22;100.00
13422;BME280;6782;55.904;13.396;2023-02-18T08:52:31;99442.41;;;6.24;100.00
13422;BME280;6782;55.904;13.396;2023-02-18T08:54:59;99456.56;;;6.17;100.00
13422;BME280;6782;55.904;13.396;2023-02-18T08:57:27;99431.13;;;6.22;100.00
13422;BME280;6782;55.904;13.396;2023-02-18T08:59:54;99448.41;;;6.29;100.00
13422;BME280;6782;55.904;13.396;2023-02-18T09:02:42;99433.31;;;6.37;100.00
13422;BME280;6782;55.904;13.396;2023-02-18T09:05:32;99427.34;;;6.32;100.00
13422;BME280;6782;55.904;13.396;2023-02-18T09:08:19;99426.63;;;6.27;100.00
13422;BME280;6782;55.904;13.396;2023-02-18T09:11:07;99399.72;;;6.22;100.00
13422;BME280;6782;55.904;13.396;2023-02-18T09:13:55;99403.91;;;6.29;100.00
13422;BME280;6782;55.904;13.396;2023-02-18T09:16:43;99424.41;;;6.44;100.00
13422;BME280;6782;55.904;13.396;2023-02-18T09:19:32;99393.00;;;6.44;100.00
13422;BME280;6782;55.904;13.396;2023-02-18T09:22:20;99362.69;;;6.36;100.00
13422;BME280;6782;55.904;13.396;2023-02-18T09:25:08;99362.75;;;6.34;100.00
13422;BME280;6782;55.904;13.396;2023-02-18T09:27:55;99352.44;;;6.28;100.00
13422;BME280;6782;55.904;13.396;2023-02-18T09:30:43;99363.56;;;6.36;100.00
13422;BME280;6782;55.904;13.396;2023-02-18T09:33:33;99350.63;;;6.30;100.00
13422;BME280;6782;55.904;13.396;2023-02-18T09:36:24;99344.22;;;6.40;100.00
13422;BME280;6782;55.904;13.396;2023-02-18T09:39:12;99362.94;;;6.57;100.00
13422;BME280;6782;55.904;13.396;2023-02-18T09:41:49;99305.75;;;6.42;100.00
13422;BME280;6782;55.904;13.396;2023-02-18T09:44:39;99304.94;;;6.40;100.00
13422;BME280;6782;55.904;13.396;2023-02-18T09:47:11;99303.13;;;6.42;100.00
13422;BME280;6782;55.904;13.396;2023-02-18T09:49:42;99292.13;;;6.31;100.00
13422;BME280;6782;55.904;13.396;2023-02-18T09:52:21;99303.47;;;6.32;100.00
13422;BME280;6782;55.904;13.396;2023-02-18T09:54:50;99287.00;;;6.28;100.00
13422;BME280;6782;55.904;13.396;2023-02-18T09:57:23;99332.13;;;6.36;100.00
13422;BME280;6782;55.904;13.396;2023-02-18T09:59:56;99327.69;;;6.38;100.00
13422;BME280;6782;55.904;13.396;2023-02-18T10:02:24;99331.09;;;6.42;100.00
13422;BME280;6782;55.904;13.396;2023-02-18T10:04:52;99351.19;;;6.41;100.00
13422;BME280;6782;55.904;13.396;2023-02-18T10:07:23;99363.28;;;6.45;100.00
13422;BME280;6782;55.904;13.396;2023-02-18T10:09:53;99337.44;;;6.33;100.00
13422;BME280;6782;55.904;13.396;2023-02-18T10:12:24;99334.97;;;6.28;100.00
13422;BME280;6782;55.904;13.396;2023-02-18T10:14:54;99376.56;;;6.39;100.00
13422;BME280;6782;55.904;13.396;2023-02-18T10:17:31;99364.50;;;6.34;100.00
13422;BME280;6782;55.904;13.396;2023-02-18T10:20:25;99351.50;;;6.30;100.00
13422;BME280;6782;55.904;13.396;2023-02-18T10:23:16;99356.00;;;6.25;100.00
13422;BME280;6782;55.904;13.396;2023-02-18T10:26:09;99411.28;;;6.46;100.00
13422;BME280;6782;55.904;13.396;2023-02-18T10:28:59;99366.81;;;6.44;100.00
13422;BME280;6782;55.904;13.396;2023-02-18T10:31:52;99380.56;;;6.51;100.00
13422;BME280;6782;55.904;13.396;2023-02-18T10:34:46;99361.22;;;6.56;100.00
13422;BME280;6782;55.904;13.396;2023-02-18T10:37:47;99359.41;;;6.58;100.00
13422;BME280;6782;55.904;13.396;2023-02-18T10:40:53;99394.00;;;6.69;100.00
13422;BME280;6782;55.904;13.396;2023-02-18T10:43:49;99413.00;;;6.76;100.00
13422;BME280;6782;55.904;13.396;2023-02-18T10:46:45;99394.00;;;6.69;100.00
13422;BME280;6782;55.904;13.396;2023-02-18T10:49:52;99373.28;;;6.60;100.00
13422;BME280;6782;55.904;13.396;2023-02-18T10:52:42;99405.72;;;6.56;100.00
13422;BME280;6782;55.904;13.396;2023-02-18T10:55:34;99368.59;;;6.42;100.00
13422;BME280;6782;55.904;13.396;2023-02-18T10:58:31;99456.78;;;6.72;100.00
13422;BME280;6782;55.904;13.396;2023-02-18T11:01:19;99439.34;;;6.71;100.00
13422;BME280;6782;55.904;13.396;2023-02-18T11:04:14;99437.72;;;6.67;100.00
13422;BME280;6782;55.904;13.396;2023-02-18T11:07:04;99422.97;;;6.63;100.00
13422;BME280;6782;55.904;13.396;2023-02-18T11:09:53;99439.63;;;6.62;100.00
13422;BME280;6782;55.904;13.396;2023-02-18T11:12:44;99441.31;;;6.63;100.00
13422;BME280;6782;55.904;13.396;2023-02-18T11:15:34;99433.00;;;6.49;100.00
13422;BME280;6782;55.904;13.396;2023-02-18T11:18:31;99449.75;;;6.44;100.00
13422;BME280;6782;55.904;13.396;2023-02-18T11:21:24;99488.66;;;6.57;100.00
13422;BME280;6782;55.904;13.396;2023-02-18T11:24:15;99449.03;;;6.37;100.00
13422;BME280;6782;55.904;13.396;2023-02-18T11:27:07;99508.22;;;6.44;100.00
13422;BME280;6782;55.904;13.396;2023-02-18T11:30:00;99496.09;;;6.40;100.00
13422;BME280;6782;55.904;13.396;2023-02-18T11:32:53;99491.84;;;6.36;100.00
13422;BME280;6782;55.904;13.396;2023-02-18T11:35:47;99518.09;;;6.33;100.00
13422;BME280;6782;55.904;13.396;2023-02-18T11:38:37;99538.22;;;6.31;100.00
13422;BME280;6782;55.904;13.396;2023-02-18T11:41:34;99548.78;;;6.28;100.00
13422;BME280;6782;55.904;13.396;2023-02-18T11:44:26;99543.69;;;6.22;100.00
13422;BME280;6782;55.904;13.396;2023-02-18T11:47:26;99530.09;;;6.08;100.00
13422;BME280;6782;55.904;13.396;2023-02-18T11:50:21;99561.25;;;6.17;100.00
13422;BME280;6782;55.904;13.396;2023-02-18T11:53:27;99557.88;;;6.12;100.00
13422;BME280;6782;55.904;13.396;2023-02-18T11:56:17;99573.47;;;6.18;100.00
13422;BME280;6782;55.904;13.396;2023-02-18T11:59:05;99589.22;;;6.15;100.00
13422;BME280;6782;55.904;13.396;2023-02-18T12:01:58;99580.50;;;6.16;100.00
13422;BME280;6782;55.904;13.396;2023-02-18T12:04:49;99585.59;;;6.20;100.00
13422;BME280;6782;55.904;13.396;2023-02-18T12:07:44;99597.00;;;6.18;100.00
13422;BME280;6782;55.904;13.396;2023-02-18T12:10:35;99602.19;;;6.19;100.00
13422;BME280;6782;55.904;13.396;2023-02-18T12:13:26;99610.72;;;6.29;100.00
13422;BME280;6782;55.904;13.396;2023-02-18T12:16:23;99609.88;;;6.27;100.00
13422;BME280;6782;55.904;13.396;2023-02-18T12:19:35;99610.72;;;6.29;100.00
13422;BME280;6782;55.904;13.396;2023-02-18T12:22:35;99595.81;;;6.31;100.00
13422;BME280;6782;55.904;13.396;2023-02-18T12:25:36;99580.13;;;6.31;100.00
13422;BME280;6782;55.904;13.396;2023-02-18T12:28:38;99595.50;;;6.43;100.00
13422;BME280;6782;55.904;13.396;2023-02-18T12:31:52;99552.28;;;6.27;100.00
13422;BME280;6782;55.904;13.396;2023-02-18T12:35:02;99565.16;;;6.36;100.00
13422;BME280;6782;55.904;13.396;2023-02-18T12:38:08;99540.31;;;6.17;100.00
13422;BME280;6782;55.904;13.396;2023-02-18T12:41:28;99579.13;;;6.35;100.00
13422;BME280;6782;55.904;13.396;2023-02-18T12:44:31;99580.03;;;6.34;100.00
13422;BME280;6782;55.904;13.396;2023-02-18T12:47:29;99569.38;;;6.42;100.00
13422;BME280;6782;55.904;13.396;2023-02-18T12:50:37;99565.66;;;6.50;100.00
13422;BME280;6782;55.904;13.396;2023-02-18T12:53:48;99570.06;;;6.48;100.00
13422;BME280;6782;55.904;13.396;2023-02-18T12:57:04;99539.84;;;6.35;100.00
13422;BME280;6782;55.904;13.396;2023-02-18T13:00:10;99552.94;;;6.37;100.00
13422;BME280;6782;55.904;13.396;2023-02-18T13:03:19;99542.41;;;6.38;100.00
13422;BME280;6782;55.904;13.396;2023-02-18T13:06:19;99563.75;;;6.55;100.00
13422;BME280;6782;55.904;13.396;2023-02-18T13:09:16;99578.25;;;6.68;100.00
13422;BME280;6782;55.904;13.396;2023-02-18T13:12:13;99578.56;;;6.90;100.00
13422;BME280;6782;55.904;13.396;2023-02-18T13:15:10;99611.78;;;7.20;100.00
13422;BME280;6782;55.904;13.396;2023-02-18T13:18:02;99559.44;;;7.17;100.00
13422;BME280;6782;55.904;13.396;2023-02-18T13:20:53;99481.63;;;6.88;100.00
13422;BME280;6782;55.904;13.396;2023-02-18T13:23:49;99447.06;;;6.45;100.00
13422;BME280;6782;55.904;13.396;2023-02-18T13:26:40;99490.28;;;6.61;100.00
13422;BME280;6782;55.904;13.396;2023-02-18T13:29:34;99457.38;;;6.51;100.00
13422;BME280;6782;55.904;13.396;2023-02-18T13:32:26;99439.25;;;6.44;100.00
13422;BME280;6782;55.904;13.396;2023-02-18T13:35:20;99470.63;;;6.45;100.00
13422;BME280;6782;55.904;13.396;2023-02-18T13:38:25;99517.13;;;6.69;100.00
13422;BME280;6782;55.904;13.396;2023-02-18T13:41:18;99512.47;;;6.80;100.00
13422;BME280;6782;55.904;13.396;2023-02-18T13:44:07;99492.84;;;6.93;100.00
13422;BME280;6782;55.904;13.396;2023-02-18T13:46:58;99440.88;;;6.78;100.00
13422;BME280;6782;55.904;13.396;2023-02-18T13:49:45;99434.78;;;6.78;100.00
13422;BME280;6782;55.904;13.396;2023-02-18T13:52:33;99404.56;;;6.66;100.00
13422;BME280;6782;55.904;13.396;2023-02-18T13:55:23;99385.66;;;6.55;100.00
13422;BME280;6782;55.904;13.396;2023-02-18T13:58:15;99367.06;;;6.35;100.00